Guelph, Canada
Current Conditions -  °F | °C
As of 5:05 PM on Monday 20 Oct 2014 (Local Time) from CYKF Reporting Station
Overcast Overcast  
Wind Chill: 52°   Ceiling: 2200
Heat Index: 52°   Visibility: 9mi
Dew Point: 48°   Wind: 6mph
Humidity: 88%   Direction: 250°WSW
Pressure: 29.78"   Gusts: NA
Location:  43.54°N, 80.25°W
Report Text: CYKF 202105Z AUTO 25005KT 9SM OVC022 11/09 A2978 RMK TS/LTNG TEMPO UNAVBL SLP088
Loading
Personal Weather Stations






























Interactive Weather Map
Tropical Storm Tracking
New forecast layout! Learn more

10-Day Weather Forecast

Advertisements
Track Severe Weather on mobile